Time;durP1;ratioP1;P1;durP2;ratioP2;P2;SDS_P1;SDS_P2;PMS_P1;PMS_P2;Temp;Humidity;BMP_temperature;BMP_pressure;BME280_temperature;BME280_humidity;BME280_pressure;Samples;Min_cycle;Max_cycle;Signal;HPM_P1;HPM_P2
2023/04/17 04:01:00;;;;;;;7.13;6.50;;;10.50;87.90;;;;;;5826144;23;20489;-74
2023/04/17 04:03:27;;;;;;;7.97;7.17;;;10.60;87.50;;;;;;4994568;28;20524;-76
2023/04/17 04:05:54;;;;;;;7.23;6.53;;;10.50;87.50;;;;;;4994326;28;20856;-75
2023/04/17 04:08:21;;;;;;;7.93;7.23;;;10.50;87.70;;;;;;4994586;28;20445;-76
2023/04/17 04:10:48;;;;;;;7.83;7.17;;;10.60;87.40;;;;;;4994344;28;20485;-73
2023/04/17 04:13:14;;;;;;;7.37;6.77;;;10.70;87.10;;;;;;4995188;28;20496;-74
2023/04/17 04:15:41;;;;;;;7.17;6.50;;;10.60;87.30;;;;;;4994398;28;20445;-74
2023/04/17 04:18:09;;;;;;;7.80;7.20;;;10.60;87.30;;;;;;4994294;28;20495;-74
2023/04/17 04:20:37;;;;;;;7.50;6.90;;;10.70;87.10;;;;;;4994242;28;20450;-75
2023/04/17 04:23:05;;;;;;;7.07;6.37;;;10.80;86.80;;;;;;4993872;28;20951;-74
2023/04/17 04:25:32;;;;;;;7.20;6.50;;;10.90;86.70;;;;;;4994130;28;20973;-74
2023/04/17 04:28:00;;;;;;;7.13;6.43;;;10.80;86.20;;;;;;4994331;28;20508;-74
2023/04/17 04:30:29;;;;;;;7.00;6.40;;;10.80;86.50;;;;;;4993890;28;20478;-75
2023/04/17 04:32:59;;;;;;;6.33;5.83;;;10.80;86.80;;;;;;4993993;28;20456;-75
2023/04/17 04:35:29;;;;;;;6.50;5.90;;;10.80;86.30;;;;;;4994047;28;20441;-75
2023/04/17 04:38:00;;;;;;;6.23;5.73;;;10.80;86.80;;;;;;4993954;28;20496;-74
2023/04/17 04:40:27;;;;;;;6.77;6.23;;;10.80;86.40;;;;;;4993910;28;20799;-75
2023/04/17 04:42:54;;;;;;;6.07;5.50;;;10.80;86.60;;;;;;4993901;28;20452;-75
2023/04/17 04:45:21;;;;;;;6.93;5.90;;;10.70;86.70;;;;;;4993873;28;20453;-74
2023/04/17 04:47:48;;;;;;;7.37;6.67;;;10.80;86.50;;;;;;4993867;28;20516;-75
2023/04/17 04:50:15;;;;;;;7.57;6.80;;;10.90;86.40;;;;;;4993773;28;20489;-75
2023/04/17 04:52:43;;;;;;;7.33;6.73;;;10.80;86.00;;;;;;4993674;28;20501;-75
2023/04/17 04:55:09;;;;;;;7.33;6.73;;;10.60;86.70;;;;;;4993500;28;20938;-75
2023/04/17 04:57:36;;;;;;;7.00;6.40;;;10.70;86.70;;;;;;4993682;28;20801;-74
2023/04/17 05:00:05;;;;;;;6.70;6.10;;;10.80;86.50;;;;;;4993717;28;20457;-74
2023/04/17 05:02:31;;;;;;;6.20;5.70;;;10.90;86.30;;;;;;4993328;28;20949;-74
2023/04/17 05:04:58;;;;;;;6.00;5.40;;;10.90;86.10;;;;;;4993601;28;20460;-75
2023/04/17 05:07:25;;;;;;;6.67;6.13;;;10.90;85.90;;;;;;4994984;28;20449;-74
2023/04/17 05:09:53;;;;;;;6.73;6.13;;;10.80;86.20;;;;;;4997527;28;20489;-74
2023/04/17 05:12:19;;;;;;;7.00;6.40;;;10.80;86.60;;;;;;4997452;28;20492;-74
2023/04/17 05:14:46;;;;;;;7.20;6.53;;;10.90;86.30;;;;;;4997421;28;20444;-74
2023/04/17 05:17:13;;;;;;;6.50;5.90;;;10.90;86.00;;;;;;4998223;28;20854;-75
2023/04/17 05:19:40;;;;;;;6.60;6.00;;;10.90;85.80;;;;;;4997372;28;20445;-75
2023/04/17 05:22:06;;;;;;;6.90;6.30;;;10.70;87.10;;;;;;4997234;28;20468;-74
2023/04/17 05:24:33;;;;;;;6.80;6.20;;;10.70;87.30;;;;;;4997306;28;20449;-74
2023/04/17 05:27:01;;;;;;;6.67;6.07;;;10.70;86.80;;;;;;4997049;28;20444;-74
2023/04/17 05:29:29;;;;;;;6.07;5.47;;;10.80;86.70;;;;;;4997270;28;20449;-75
2023/04/17 05:31:55;;;;;;;6.37;5.87;;;10.80;86.40;;;;;;4996653;28;20866;-75
2023/04/17 05:34:22;;;;;;;7.23;6.53;;;10.80;86.40;;;;;;4997017;28;20503;-75
2023/04/17 05:36:49;;;;;;;7.30;6.20;;;10.80;86.30;;;;;;4997048;28;20449;-74
2023/04/17 05:39:15;;;;;;;6.60;6.00;;;10.80;86.60;;;;;;4996715;28;20942;-75
2023/04/17 05:41:42;;;;;;;6.53;5.93;;;10.70;86.30;;;;;;4996933;28;20469;-75
2023/04/17 05:44:10;;;;;;;7.43;6.83;;;10.70;86.60;;;;;;4996850;28;20445;-75
2023/04/17 05:46:37;;;;;;;6.47;5.87;;;10.60;87.00;;;;;;4996780;28;20826;-75
2023/04/17 05:49:03;;;;;;;7.67;6.93;;;10.70;86.80;;;;;;4996799;28;20452;-75
2023/04/17 05:51:30;;;;;;;6.43;5.83;;;10.80;86.60;;;;;;4996579;28;20563;-73
2023/04/17 05:53:57;;;;;;;6.60;6.00;;;10.80;86.70;;;;;;4996729;28;20449;-73
2023/04/17 05:56:24;;;;;;;6.67;6.10;;;10.70;86.30;;;;;;4996713;28;20445;-73
2023/04/17 05:58:50;;;;;;;6.90;6.30;;;10.60;86.90;;;;;;4996659;28;20453;-74
2023/04/17 06:01:21;;;;;;;7.33;6.63;;;10.60;87.20;;;;;;4996311;28;20512;-74
2023/04/17 06:03:47;;;;;;;6.80;6.20;;;10.60;87.00;;;;;;4996499;28;20456;-74
2023/04/17 06:06:14;;;;;;;7.47;6.77;;;10.60;87.10;;;;;;4996470;28;20504;-74
2023/04/17 06:08:41;;;;;;;7.50;6.80;;;10.60;87.20;;;;;;4997009;28;20454;-74
2023/04/17 06:11:08;;;;;;;6.83;6.23;;;10.70;86.90;;;;;;4996289;28;20489;-74
2023/04/17 06:13:34;;;;;;;5.63;5.13;;;10.70;86.90;;;;;;4996092;28;20445;-74
2023/04/17 06:16:01;;;;;;;6.60;6.00;;;10.70;87.00;;;;;;4996061;28;21009;-74
2023/04/17 06:18:29;;;;;;;8.10;7.40;;;10.80;86.90;;;;;;4995501;28;20878;-74
2023/04/17 06:20:56;;;;;;;6.60;6.00;;;10.80;86.60;;;;;;4996302;28;20466;-74
2023/04/17 06:23:22;;;;;;;6.03;5.50;;;10.80;86.40;;;;;;4996209;28;20886;-74
2023/04/17 06:25:49;;;;;;;6.87;6.27;;;10.70;86.60;;;;;;4996124;28;20453;-74
2023/04/17 06:28:16;;;;;;;6.17;5.57;;;10.80;86.80;;;;;;4996503;28;20449;-74
2023/04/17 06:30:43;;;;;;;6.33;5.73;;;10.80;86.70;;;;;;4996203;28;20543;-74
2023/04/17 06:33:09;;;;;;;6.40;5.80;;;10.90;86.60;;;;;;4996126;28;20507;-75
2023/04/17 06:35:37;;;;;;;6.10;5.60;;;10.90;86.70;;;;;;4996309;28;20626;-74
2023/04/17 06:38:04;;;;;;;6.83;6.23;;;10.90;86.60;;;;;;4995908;28;20516;-74
2023/04/17 06:40:31;;;;;;;6.07;5.43;;;10.70;86.70;;;;;;4995834;28;20500;-75
2023/04/17 06:42:57;;;;;;;7.33;6.73;;;10.70;87.00;;;;;;4995766;28;20806;-74
2023/04/17 06:45:24;;;;;;;6.33;5.83;;;10.80;86.90;;;;;;4995809;28;20449;-74
2023/04/17 06:47:51;;;;;;;6.40;5.80;;;10.70;86.90;;;;;;4995811;28;20500;-74
2023/04/17 06:50:18;;;;;;;5.67;5.17;;;10.60;87.50;;;;;;4995762;28;20454;-74
2023/04/17 06:52:46;;;;;;;6.10;5.60;;;10.60;87.60;;;;;;4995684;28;20484;-74
2023/04/17 06:55:12;;;;;;;6.63;5.10;;;10.50;87.80;;;;;;4996221;28;20445;-74
2023/04/17 06:57:39;;;;;;;5.90;5.40;;;10.60;87.90;;;;;;4996438;28;20449;-74
2023/04/17 07:00:07;;;;;;;5.33;4.83;;;10.60;88.00;;;;;;4995996;28;20492;-74
2023/04/17 07:02:34;;;;;;;5.80;5.30;;;10.80;87.50;;;;;;4995674;28;21002;-74
2023/04/17 07:05:00;;;;;;;6.10;5.50;;;10.90;87.20;;;;;;4996455;28;20446;-75
2023/04/17 07:07:29;;;;;;;6.30;5.57;;;10.70;87.10;;;;;;4995991;28;20827;-74
2023/04/17 07:09:57;;;;;;;5.53;5.00;;;10.70;87.60;;;;;;4995794;28;20454;-73
2023/04/17 07:12:24;;;;;;;6.27;5.67;;;10.80;87.50;;;;;;4995975;28;20547;-74
2023/04/17 07:14:51;;;;;;;6.17;5.67;;;10.80;87.30;;;;;;4996040;28;20454;-73
2023/04/17 07:17:17;;;;;;;6.37;5.77;;;10.70;87.20;;;;;;4995960;28;20457;-73
2023/04/17 07:19:45;;;;;;;6.70;6.10;;;10.40;87.90;;;;;;4995916;28;20457;-74
2023/04/17 07:22:11;;;;;;;6.80;6.20;;;10.50;88.30;;;;;;4995961;28;20551;-73
2023/04/17 07:24:38;;;;;;;6.10;5.60;;;10.60;87.90;;;;;;4995443;28;20934;-73
2023/04/17 07:27:06;;;;;;;5.90;5.40;;;10.60;87.60;;;;;;4995550;28;20433;-73
2023/04/17 07:29:34;;;;;;;5.30;4.83;;;10.60;87.70;;;;;;4995318;28;20481;-74
2023/04/17 07:32:02;;;;;;;5.70;5.20;;;10.50;87.60;;;;;;4996027;28;20848;-73
2023/04/17 07:34:33;;;;;;;6.03;5.53;;;10.40;88.40;;;;;;4995290;28;20457;-73
2023/04/17 07:37:00;;;;;;;6.53;5.93;;;10.40;88.50;;;;;;4995221;28;20801;-74
2023/04/17 07:39:30;;;;;;;6.67;5.77;;;10.40;88.50;;;;;;4994943;28;20954;-74
2023/04/17 07:41:57;;;;;;;5.63;5.10;;;10.50;88.40;;;;;;4995205;28;20987;-74
2023/04/17 07:44:25;;;;;;;6.40;5.80;;;10.20;88.40;;;;;;4995521;28;20462;-74
2023/04/17 07:46:51;;;;;;;5.17;4.70;;;10.20;89.60;;;;;;4995328;28;20875;-74
2023/04/17 07:49:18;;;;;;;6.00;5.30;;;10.30;89.10;;;;;;4995560;28;20453;-74
2023/04/17 07:51:45;;;;;;;5.73;5.23;;;10.30;89.60;;;;;;4995081;28;20493;-74
2023/04/17 07:54:12;;;;;;;5.27;4.77;;;10.30;89.60;;;;;;4994524;28;20504;-74
2023/04/17 07:56:39;;;;;;;5.30;4.80;;;10.40;89.60;;;;;;4995197;28;20461;-74
2023/04/17 07:59:06;;;;;;;6.40;5.80;;;10.60;89.20;;;;;;4995433;28;20445;-74
2023/04/17 08:01:34;;;;;;;5.77;4.67;;;10.60;89.00;;;;;;4994427;28;20531;-74
2023/04/17 08:04:00;;;;;;;5.90;4.90;;;10.60;88.90;;;;;;4994513;28;20453;-74
2023/04/17 08:06:27;;;;;;;4.87;4.40;;;10.70;88.50;;;;;;4994439;28;20515;-73
2023/04/17 08:08:54;;;;;;;4.87;4.37;;;10.80;88.30;;;;;;4994224;28;21024;-74
2023/04/17 08:11:21;;;;;;;4.73;4.33;;;10.80;88.40;;;;;;4994424;28;20536;-74
2023/04/17 08:13:47;;;;;;;4.70;4.20;;;10.90;88.20;;;;;;4994423;28;20463;-74
2023/04/17 08:16:14;;;;;;;4.23;3.83;;;11.00;88.10;;;;;;4994358;28;20453;-73
2023/04/17 08:18:42;;;;;;;5.77;5.27;;;11.00;88.00;;;;;;4994303;28;20449;-73
2023/04/17 08:21:09;;;;;;;5.17;4.67;;;10.90;87.60;;;;;;4994071;28;20461;-73
2023/04/17 08:23:36;;;;;;;4.90;4.37;;;11.00;88.00;;;;;;4994341;28;20446;-73
2023/04/17 08:26:03;;;;;;;4.33;3.93;;;11.00;87.80;;;;;;4994184;28;20453;-73
2023/04/17 08:28:30;;;;;;;3.83;3.43;;;11.00;87.70;;;;;;4994316;28;20866;-73
2023/04/17 08:30:56;;;;;;;4.77;4.27;;;10.90;88.00;;;;;;4994153;28;20834;-72
2023/04/17 08:33:23;;;;;;;4.97;4.10;;;11.00;88.10;;;;;;4993913;28;20857;-74
2023/04/17 08:35:51;;;;;;;3.93;3.50;;;11.10;87.50;;;;;;4994054;28;20507;-72
2023/04/17 08:38:18;;;;;;;4.57;4.17;;;11.00;87.10;;;;;;4993997;28;20452;-73
2023/04/17 08:40:48;;;;;;;4.50;4.10;;;10.90;87.50;;;;;;4993950;28;20469;-73
2023/04/17 08:43:17;;;;;;;4.20;3.80;;;11.00;88.00;;;;;;4993554;28;20445;-73
2023/04/17 08:45:51;;;;;;;4.10;3.70;;;11.10;87.50;;;;;;4993566;28;20460;-73
2023/04/17 08:48:18;;;;;;;4.83;4.33;;;11.20;87.50;;;;;;4993875;28;20866;-73
2023/04/17 08:50:48;;;;;;;3.70;3.33;;;11.10;87.50;;;;;;4993482;28;20906;-73
2023/04/17 08:53:16;;;;;;;4.50;3.80;;;11.00;87.70;;;;;;4993976;28;20452;-72
2023/04/17 08:55:43;;;;;;;4.80;4.40;;;10.80;88.30;;;;;;4993865;28;20456;-72
2023/04/17 08:58:10;;;;;;;3.53;3.23;;;10.90;88.70;;;;;;4994305;28;20457;-72
2023/04/17 09:00:38;;;;;;;3.80;3.43;;;11.00;88.30;;;;;;4994591;28;20459;-73
2023/04/17 09:03:06;;;;;;;4.13;3.73;;;10.80;88.50;;;;;;4994030;28;20426;-73
2023/04/17 09:05:35;;;;;;;4.90;4.50;;;10.80;88.60;;;;;;4993780;28;20516;-73
2023/04/17 09:08:13;;;;;;;4.90;4.37;;;10.70;88.90;;;;;;4994110;28;20449;-72
2023/04/17 09:10:43;;;;;;;4.13;3.73;;;10.60;89.40;;;;;;4995968;28;20484;-74
2023/04/17 09:13:13;;;;;;;4.23;3.53;;;10.60;89.90;;;;;;4995868;28;20481;-74
2023/04/17 09:15:40;;;;;;;4.80;3.97;;;10.80;89.60;;;;;;4995846;28;20458;-74
2023/04/17 09:18:22;;;;;;;4.33;3.93;;;11.00;89.40;;;;;;4995479;28;20583;-74
2023/04/17 09:20:50;;;;;;;5.07;4.57;;;11.10;88.90;;;;;;4994674;28;20485;-73
2023/04/17 09:23:17;;;;;;;4.20;3.80;;;11.20;88.50;;;;;;4995058;28;20504;-73
2023/04/17 09:25:46;;;;;;;4.70;3.67;;;11.40;88.30;;;;;;4994257;28;20484;-73
2023/04/17 09:28:15;;;;;;;4.37;3.33;;;11.40;87.60;;;;;;4995020;28;20450;-74
2023/04/17 09:30:42;;;;;;;4.10;3.70;;;11.30;87.60;;;;;;4994451;28;20504;-74
2023/04/17 09:33:10;;;;;;;3.57;3.27;;;11.30;88.00;;;;;;4994783;28;20512;-73
2023/04/17 09:35:38;;;;;;;4.20;3.80;;;11.30;88.20;;;;;;4995076;28;20549;-73
2023/04/17 09:38:05;;;;;;;3.70;3.20;;;11.40;87.80;;;;;;4995016;28;20461;-73
2023/04/17 09:40:37;;;;;;;4.63;3.87;;;11.40;88.20;;;;;;4994603;28;20473;-74
2023/04/17 09:43:07;;;;;;;3.10;2.80;;;11.50;88.20;;;;;;4995162;28;20449;-73
2023/04/17 09:45:36;;;;;;;4.20;3.40;;;11.50;87.70;;;;;;4994809;28;20885;-75
2023/04/17 09:48:06;;;;;;;3.70;3.27;;;11.20;87.80;;;;;;4994788;28;20490;-73
2023/04/17 09:50:33;;;;;;;4.30;3.37;;;11.30;88.60;;;;;;4994477;28;20449;-74
2023/04/17 09:53:01;;;;;;;3.23;2.93;;;11.50;88.10;;;;;;4995530;28;20493;-73
2023/04/17 09:55:29;;;;;;;3.00;2.70;;;11.80;87.70;;;;;;4997112;28;20460;-74
2023/04/17 09:57:57;;;;;;;3.37;2.67;;;11.90;87.50;;;;;;4997547;28;20556;-73
2023/04/17 10:00:26;;;;;;;5.50;3.90;;;12.10;87.20;;;;;;4997756;28;20462;-73
2023/04/17 10:02:54;;;;;;;3.67;3.37;;;12.10;86.90;;;;;;4997631;28;20528;-72
2023/04/17 10:05:22;;;;;;;3.70;3.40;;;11.90;86.70;;;;;;4997510;28;20454;-73
2023/04/17 10:07:49;;;;;;;3.00;2.60;;;12.00;86.70;;;;;;4998167;28;20496;-73
2023/04/17 10:10:23;;;;;;;3.70;3.40;;;12.00;86.60;;;;;;4997947;28;20972;-73
2023/04/17 10:12:56;;;;;;;3.00;2.53;;;12.20;87.30;;;;;;4998359;28;20589;-70
2023/04/17 10:15:25;;;;;;;4.13;3.40;;;12.30;86.80;;;;;;4997825;28;20433;-73
2023/04/17 10:17:55;;;;;;;2.90;2.60;;;12.30;87.20;;;;;;4998122;28;20498;-73
2023/04/17 10:20:38;;;;;;;3.27;2.90;;;12.60;87.30;;;;;;4997902;28;20461;-73
2023/04/17 10:23:28;;;;;;;4.90;3.20;;;12.60;85.00;;;;;;4998228;28;20451;-72
2023/04/17 10:26:44;;;;;;;4.10;3.00;;;12.70;85.50;;;;;;4998737;28;20458;-72
2023/04/17 10:29:12;;;;;;;2.97;2.67;;;12.60;84.30;;;;;;4998438;28;20456;-74
2023/04/17 10:32:27;;;;;;;3.50;2.57;;;12.50;84.30;;;;;;4998488;28;20600;-74
2023/04/17 10:34:57;;;;;;;3.50;3.20;;;12.50;84.80;;;;;;4997573;28;20817;-74
2023/04/17 10:38:01;;;;;;;4.30;3.27;;;12.40;84.40;;;;;;4997611;28;20442;-72
2023/04/17 10:40:31;;;;;;;5.00;4.50;;;12.40;84.10;;;;;;4997631;28;20434;-73
2023/04/17 10:43:06;;;;;;;3.27;2.97;;;12.20;84.00;;;;;;4997142;28;20946;-73
2023/04/17 10:46:01;;;;;;;4.37;3.80;;;12.00;85.00;;;;;;4997392;28;20449;-74
2023/04/17 10:48:31;;;;;;;3.63;3.33;;;12.00;84.90;;;;;;4991630;28;20895;-74
2023/04/17 10:51:00;;;;;;;3.33;3.00;;;12.00;84.80;;;;;;4997358;28;20475;-73
2023/04/17 10:53:41;;;;;;;3.90;3.60;;;11.90;85.30;;;;;;4996796;28;20524;-73
2023/04/17 10:56:09;;;;;;;4.13;3.70;;;11.90;86.20;;;;;;4996657;28;20489;-74
2023/04/17 10:58:54;;;;;;;3.97;3.67;;;11.80;85.90;;;;;;4996722;28;20454;-73
2023/04/17 11:01:24;;;;;;;4.13;3.70;;;11.70;86.70;;;;;;4996445;28;20531;-73
2023/04/17 11:03:52;;;;;;;3.63;3.20;;;11.70;86.50;;;;;;4996914;28;20520;-71
2023/04/17 11:06:20;;;;;;;3.80;3.50;;;11.50;86.30;;;;;;4996121;28;20461;-72
2023/04/17 11:08:48;;;;;;;3.60;3.30;;;11.40;87.00;;;;;;4996584;28;20825;-72
2023/04/17 11:11:16;;;;;;;3.33;3.03;;;11.50;87.20;;;;;;4996413;28;20990;-74
2023/04/17 11:13:45;;;;;;;3.57;3.27;;;11.50;87.20;;;;;;4995906;28;20539;-71
2023/04/17 11:16:13;;;;;;;3.60;3.30;;;11.40;87.00;;;;;;4996025;28;20935;-73
2023/04/17 11:18:39;;;;;;;4.17;3.80;;;11.50;87.60;;;;;;4996279;28;20504;-72
2023/04/17 11:21:09;;;;;;;3.13;2.83;;;11.80;87.50;;;;;;4996059;28;20476;-72
2023/04/17 11:23:38;;;;;;;2.87;2.50;;;11.90;86.90;;;;;;4995913;28;20477;-72
2023/04/17 11:26:05;;;;;;;3.13;2.47;;;11.80;86.30;;;;;;4996147;28;20492;-72
2023/04/17 11:28:32;;;;;;;3.33;3.03;;;11.70;86.10;;;;;;4997124;28;20548;-72
2023/04/17 11:30:59;;;;;;;2.73;2.47;;;11.90;86.50;;;;;;4995623;28;20469;-73
2023/04/17 11:33:27;;;;;;;4.10;2.93;;;12.00;86.30;;;;;;4995918;28;20520;-75
2023/04/17 11:35:54;;;;;;;2.67;2.30;;;12.10;85.30;;;;;;4996068;28;20512;-75
2023/04/17 11:38:22;;;;;;;2.97;2.67;;;12.10;86.10;;;;;;4996064;28;20453;-73
2023/04/17 11:40:52;;;;;;;2.63;2.43;;;12.30;85.10;;;;;;4994729;28;20473;-73
2023/04/17 11:43:21;;;;;;;3.37;2.33;;;12.20;84.40;;;;;;4994801;28;20449;-73
2023/04/17 11:45:50;;;;;;;3.00;2.60;;;12.40;84.80;;;;;;4994459;28;20458;-74
2023/04/17 11:48:21;;;;;;;3.30;2.63;;;12.40;84.40;;;;;;4995006;28;20503;-74
2023/04/17 11:50:48;;;;;;;2.70;2.27;;;12.50;84.20;;;;;;4995757;28;20568;-77
2023/04/17 11:53:16;;;;;;;2.93;2.37;;;12.80;84.10;;;;;;4995512;28;20914;-75
2023/04/17 11:55:43;;;;;;;2.80;2.27;;;13.00;82.60;;;;;;4995660;28;20454;-73
2023/04/17 11:58:12;;;;;;;2.30;1.90;;;12.70;82.60;;;;;;4995110;28;20461;-75
2023/04/17 12:00:41;;;;;;;2.40;2.13;;;12.70;82.50;;;;;;4995309;28;20457;-73
2023/04/17 12:03:33;;;;;;;2.63;2.40;;;12.60;83.10;;;;;;4995167;28;20441;-74
2023/04/17 12:06:00;;;;;;;2.40;1.90;;;12.80;83.90;;;;;;4995070;28;20481;-74
2023/04/17 12:08:28;;;;;;;3.43;1.93;;;13.10;83.20;;;;;;4995072;28;20942;-74
2023/04/17 12:10:56;;;;;;;2.03;1.60;;;13.70;82.60;;;;;;4995084;28;20477;-73
2023/04/17 12:13:24;;;;;;;2.67;1.93;;;13.90;77.80;;;;;;4995423;28;20481;-73
2023/04/17 12:15:51;;;;;;;2.50;2.20;;;14.00;78.70;;;;;;4994983;28;20517;-74
2023/04/17 12:18:17;;;;;;;2.70;2.07;;;14.00;78.10;;;;;;4994405;28;20450;-74
2023/04/17 12:20:44;;;;;;;2.20;1.90;;;14.10;76.30;;;;;;4994921;28;20473;-74
2023/04/17 12:23:11;;;;;;;2.50;2.10;;;13.90;75.40;;;;;;4995010;28;20446;-75
2023/04/17 12:25:38;;;;;;;3.00;2.10;;;13.80;77.20;;;;;;4995474;28;20453;-74
2023/04/17 12:28:05;;;;;;;2.40;1.60;;;13.80;78.00;;;;;;4995168;28;20457;-73
2023/04/17 12:30:34;;;;;;;2.60;2.13;;;13.80;76.80;;;;;;4994772;28;20462;-74
2023/04/17 12:33:02;;;;;;;2.60;2.40;;;13.70;78.40;;;;;;4994738;28;20492;-75
2023/04/17 12:35:29;;;;;;;2.90;2.40;;;13.80;78.10;;;;;;4994955;28;20453;-74
2023/04/17 12:37:56;;;;;;;2.90;2.57;;;13.90;78.40;;;;;;4994960;28;20450;-74
2023/04/17 12:40:23;;;;;;;2.80;2.30;;;13.90;77.70;;;;;;4994632;28;20457;-75
2023/04/17 12:42:50;;;;;;;3.13;2.50;;;13.70;78.20;;;;;;4994636;28;20931;-75
2023/04/17 12:45:17;;;;;;;2.93;2.40;;;13.40;78.60;;;;;;4995161;28;20440;-75
2023/04/17 12:47:46;;;;;;;2.83;2.50;;;13.00;79.10;;;;;;4994800;28;20460;-74
2023/04/17 12:50:13;;;;;;;3.33;2.30;;;13.10;79.10;;;;;;4993527;28;20859;-75
2023/04/17 12:52:40;;;;;;;2.60;1.93;;;13.20;79.10;;;;;;4993668;28;20539;-74
2023/04/17 12:55:08;;;;;;;2.70;2.30;;;13.20;77.90;;;;;;4993777;28;20470;-75
2023/04/17 12:57:35;;;;;;;3.20;2.80;;;12.90;79.50;;;;;;4993477;28;21006;-75
2023/04/17 13:00:04;;;;;;;2.93;2.60;;;12.90;79.30;;;;;;4993458;28;20492;-75
2023/04/17 13:02:31;;;;;;;2.70;2.30;;;13.00;78.90;;;;;;4992515;28;21003;-75
2023/04/17 13:04:59;;;;;;;3.10;2.50;;;13.00;79.40;;;;;;4992892;28;20445;-75
2023/04/17 13:07:26;;;;;;;2.73;2.43;;;13.00;79.80;;;;;;4992892;28;20449;-75
2023/04/17 13:09:52;;;;;;;2.90;2.50;;;13.00;79.90;;;;;;4992822;28;20528;-75
2023/04/17 13:12:19;;;;;;;2.80;2.50;;;12.80;79.20;;;;;;4992646;28;20469;-74
2023/04/17 13:14:46;;;;;;;3.37;2.80;;;12.90;78.70;;;;;;4992532;28;20514;-74
2023/04/17 13:17:13;;;;;;;2.60;2.20;;;12.90;79.00;;;;;;4992816;28;20461;-74
2023/04/17 13:19:40;;;;;;;3.70;2.57;;;12.90;78.90;;;;;;4992743;28;20445;-74
2023/04/17 13:22:08;;;;;;;3.20;2.87;;;12.80;79.70;;;;;;4992429;28;20476;-75
2023/04/17 13:24:35;;;;;;;2.70;2.30;;;12.60;81.30;;;;;;4992735;28;20524;-74
2023/04/17 13:27:02;;;;;;;3.90;2.70;;;12.70;80.60;;;;;;4992662;28;20457;-74
2023/04/17 13:29:29;;;;;;;2.73;2.27;;;12.70;81.50;;;;;;4994961;28;20896;-74
2023/04/17 13:31:56;;;;;;;2.70;2.30;;;12.90;81.30;;;;;;4995731;28;20457;-74
2023/04/17 13:34:23;;;;;;;3.10;2.60;;;13.00;81.00;;;;;;4995876;28;20489;-75
2023/04/17 13:36:50;;;;;;;2.73;2.23;;;13.00;80.60;;;;;;4995908;28;20453;-75
2023/04/17 13:39:18;;;;;;;3.20;2.70;;;13.20;80.00;;;;;;4995862;28;20453;-75
2023/04/17 13:41:44;;;;;;;3.70;2.73;;;13.30;80.10;;;;;;4995724;28;20473;-75
2023/04/17 13:44:12;;;;;;;2.40;2.00;;;13.20;79.80;;;;;;4996045;28;20503;-75
2023/04/17 13:46:40;;;;;;;3.00;2.40;;;13.10;78.40;;;;;;4995756;28;20449;-75
2023/04/17 13:49:06;;;;;;;2.60;2.07;;;13.10;78.40;;;;;;4995758;28;20449;-75
2023/04/17 13:51:33;;;;;;;2.90;2.60;;;13.10;77.90;;;;;;4995544;28;20475;-75
2023/04/17 13:54:00;;;;;;;3.00;2.57;;;13.10;77.90;;;;;;4995549;28;20488;-75
2023/04/17 13:56:28;;;;;;;2.37;1.90;;;13.00;78.00;;;;;;4995834;28;20457;-75
2023/04/17 13:58:56;;;;;;;2.77;2.37;;;12.90;78.30;;;;;;4995311;28;20954;-75
2023/04/17 14:01:23;;;;;;;2.70;2.25;;;12.90;78.20;;;;;;4960117;28;1032128;-76
2023/04/17 14:03:49;;;;;;;2.27;1.80;;;13.00;78.70;;;;;;4996655;28;20202;-75
2023/04/17 14:06:17;;;;;;;4.03;2.40;;;13.10;78.10;;;;;;4996649;28;20476;-75
2023/04/17 14:08:44;;;;;;;2.80;2.40;;;13.20;78.00;;;;;;4996575;28;20445;-75
2023/04/17 14:11:11;;;;;;;3.23;2.40;;;13.20;77.60;;;;;;4996422;28;20512;-75
2023/04/17 14:13:39;;;;;;;3.00;2.70;;;13.20;77.70;;;;;;4996435;28;20485;-75
2023/04/17 14:16:06;;;;;;;2.80;2.50;;;13.20;77.70;;;;;;4996440;28;20442;-76
2023/04/17 14:18:33;;;;;;;3.70;3.20;;;13.10;77.90;;;;;;4996680;28;20446;-76
2023/04/17 14:21:00;;;;;;;2.83;2.33;;;13.20;78.30;;;;;;4996324;28;20469;-76
2023/04/17 14:23:27;;;;;;;3.10;2.60;;;13.20;77.10;;;;;;4996355;28;20458;-76
2023/04/17 14:25:54;;;;;;;2.80;2.13;;;13.20;78.10;;;;;;4996328;28;20461;-76
2023/04/17 14:28:20;;;;;;;3.17;2.77;;;13.30;76.90;;;;;;4995875;28;20954;-76
2023/04/17 14:30:48;;;;;;;2.40;2.20;;;13.20;77.00;;;;;;4996091;28;20477;-76
2023/04/17 14:33:15;;;;;;;2.70;2.20;;;13.20;76.30;;;;;;4996177;28;20512;-77
2023/04/17 14:35:42;;;;;;;4.10;1.93;;;13.00;76.40;;;;;;4996112;28;20456;-77
2023/04/17 14:38:08;;;;;;;2.67;2.37;;;12.90;77.10;;;;;;4996039;28;20454;-75
2023/04/17 14:40:35;;;;;;;2.97;2.40;;;12.90;76.90;;;;;;4994750;28;20804;-74
2023/04/17 14:43:02;;;;;;;2.17;1.70;;;12.90;76.70;;;;;;4995947;28;20524;-75
2023/04/17 14:45:29;;;;;;;2.30;1.80;;;12.80;76.60;;;;;;4995920;28;20449;-75
2023/04/17 14:47:57;;;;;;;2.70;2.30;;;12.60;77.20;;;;;;4995896;28;20449;-75
2023/04/17 14:50:24;;;;;;;5.27;2.93;;;12.50;78.70;;;;;;4995763;28;20573;-75
2023/04/17 14:52:51;;;;;;;3.03;2.73;;;12.50;79.20;;;;;;4995369;28;20955;-75
2023/04/17 14:55:18;;;;;;;3.20;2.53;;;12.40;79.60;;;;;;4995712;28;20820;-75
2023/04/17 14:57:44;;;;;;;3.20;2.90;;;12.30;80.10;;;;;;4995670;28;20457;-75
2023/04/17 15:00:12;;;;;;;3.80;2.57;;;12.30;80.30;;;;;;4995669;28;20499;-75
2023/04/17 15:02:39;;;;;;;3.30;2.50;;;12.40;80.30;;;;;;4995145;28;20840;-75
2023/04/17 15:05:08;;;;;;;2.83;2.47;;;12.40;80.60;;;;;;4995865;28;20449;-75
2023/04/17 15:07:35;;;;;;;3.40;2.30;;;12.70;80.60;;;;;;4995542;28;20504;-75
2023/04/17 15:10:01;;;;;;;2.93;2.53;;;12.80;79.70;;;;;;4995450;28;20446;-75
2023/04/17 15:12:28;;;;;;;2.87;2.33;;;12.90;78.20;;;;;;4995301;28;20985;-74
2023/04/17 15:14:56;;;;;;;2.70;2.40;;;12.80;78.90;;;;;;4995351;28;20910;-75
2023/04/17 15:17:22;;;;;;;3.00;2.20;;;12.90;78.60;;;;;;4995424;28;20451;-75
2023/04/17 15:19:49;;;;;;;2.50;2.03;;;12.80;78.40;;;;;;4995255;28;20449;-75
2023/04/17 15:22:17;;;;;;;3.13;2.30;;;12.70;77.90;;;;;;4995183;28;20473;-75
2023/04/17 15:24:44;;;;;;;3.07;2.47;;;12.70;78.60;;;;;;4995182;28;20445;-75
2023/04/17 15:27:11;;;;;;;3.30;2.33;;;12.90;78.30;;;;;;4995128;28;20512;-75
2023/04/17 15:29:39;;;;;;;3.10;2.50;;;13.20;77.50;;;;;;4995109;28;20461;-75
2023/04/17 15:32:06;;;;;;;3.93;2.40;;;13.30;76.80;;;;;;4994910;28;20477;-74
2023/04/17 15:34:33;;;;;;;2.80;2.30;;;13.40;76.80;;;;;;4994922;28;20528;-74
2023/04/17 15:37:00;;;;;;;2.67;2.27;;;13.30;76.00;;;;;;4994915;28;20500;-75
2023/04/17 15:39:28;;;;;;;2.60;2.23;;;13.40;76.00;;;;;;4994831;28;20446;-76
2023/04/17 15:41:55;;;;;;;3.60;2.40;;;13.30;76.30;;;;;;4994433;28;20478;-74
2023/04/17 15:44:22;;;;;;;2.57;2.30;;;13.30;76.50;;;;;;4994804;28;20472;-75
2023/04/17 15:46:48;;;;;;;3.10;2.10;;;13.30;76.20;;;;;;4994704;28;20461;-76
2023/04/17 15:49:15;;;;;;;3.00;2.33;;;13.30;75.90;;;;;;4994925;28;20449;-76
2023/04/17 15:51:42;;;;;;;2.60;2.20;;;13.20;76.00;;;;;;4994488;28;20501;-76
2023/04/17 15:54:10;;;;;;;2.63;2.43;;;13.20;76.50;;;;;;4994555;28;20477;-76
2023/04/17 15:56:38;;;;;;;4.20;2.50;;;13.30;76.40;;;;;;4994515;28;20512;-75
2023/04/17 15:59:05;;;;;;;2.80;2.27;;;13.00;76.10;;;;;;4994628;28;20448;-76
2023/04/17 16:01:35;;;;;;;3.77;2.83;;;12.90;76.90;;;;;;4994431;28;20912;-75
2023/04/17 16:04:02;;;;;;;2.37;1.90;;;12.80;77.10;;;;;;4994644;28;20468;-75
2023/04/17 16:06:29;;;;;;;3.23;2.23;;;12.60;77.30;;;;;;4994464;28;20453;-76
2023/04/17 16:08:55;;;;;;;2.60;2.20;;;12.70;77.80;;;;;;4994541;28;20445;-76
2023/04/17 16:11:22;;;;;;;2.60;2.03;;;12.60;77.70;;;;;;4994005;28;20472;-75
2023/04/17 16:13:50;;;;;;;3.30;1.87;;;12.60;77.20;;;;;;5017380;23;20524;-77
2023/04/17 16:16:17;;;;;;;3.57;2.30;;;12.50;77.10;;;;;;4994821;28;20445;-77
2023/04/17 16:18:46;;;;;;;2.83;2.20;;;12.40;77.60;;;;;;4994583;28;20509;-78
2023/04/17 16:21:13;;;;;;;3.30;2.87;;;12.20;77.60;;;;;;4994792;28;20536;-76
2023/04/17 16:23:40;;;;;;;2.50;2.13;;;12.10;78.20;;;;;;4994591;28;20487;-77
2023/04/17 16:26:06;;;;;;;3.53;2.47;;;12.10;78.50;;;;;;4994595;28;20450;-76
2023/04/17 16:28:33;;;;;;;2.70;2.50;;;12.20;79.00;;;;;;4995225;28;20566;-76
2023/04/17 16:31:01;;;;;;;3.00;2.33;;;12.30;78.90;;;;;;4994948;28;20445;-76
2023/04/17 16:33:28;;;;;;;3.10;2.80;;;12.40;78.10;;;;;;4994894;28;20540;-76
2023/04/17 16:35:55;;;;;;;2.80;2.27;;;12.30;78.40;;;;;;4994598;28;20457;-77
2023/04/17 16:38:22;;;;;;;2.70;2.00;;;12.30;78.70;;;;;;4994075;28;20453;-77
2023/04/17 16:40:49;;;;;;;2.43;1.70;;;12.30;78.20;;;;;;4994325;28;20445;-77
2023/04/17 16:43:16;;;;;;;3.10;2.60;;;12.30;77.60;;;;;;4993886;28;21055;-76
2023/04/17 16:45:43;;;;;;;2.93;2.20;;;12.30;77.70;;;;;;4995066;28;20450;-76
2023/04/17 16:48:11;;;;;;;2.50;2.10;;;12.30;77.60;;;;;;4994997;28;20457;-77
2023/04/17 16:50:40;;;;;;;2.70;2.30;;;12.40;77.40;;;;;;4993880;28;20460;-76
2023/04/17 16:53:08;;;;;;;2.40;1.80;;;12.40;77.50;;;;;;4993958;28;20457;-77